Time;durP1;ratioP1;P1;durP2;ratioP2;P2;SDS_P1;SDS_P2;PMS_P1;PMS_P2;Temp;Humidity;BMP_temperature;BMP_pressure;BME280_temperature;BME280_humidity;BME280_pressure;Samples;Min_cycle;Max_cycle;Signal;HPM_P1;HPM_P2
2021/07/05 00:00:48;;;;;;;4.40;2.35;;;16.60;97.80;;;;;;5030498;28;20036;-78
2021/07/05 00:03:14;;;;;;;4.78;2.50;;;16.60;97.90;;;;;;5031678;28;20182;-78
2021/07/05 00:05:40;;;;;;;10.57;2.75;;;16.60;97.90;;;;;;5046725;28;20033;-78
2021/07/05 00:08:05;;;;;;;8.18;2.92;;;16.60;97.90;;;;;;5046662;28;20026;-77
2021/07/05 00:10:31;;;;;;;4.22;2.58;;;16.60;98.00;;;;;;5030246;28;20037;-79
2021/07/05 00:12:58;;;;;;;8.90;3.13;;;16.60;98.00;;;;;;5046870;28;20079;-79
2021/07/05 00:15:30;;;;;;;6.88;2.75;;;16.60;98.00;;;;;;5046747;28;20036;-76
2021/07/05 00:18:02;;;;;;;8.38;3.13;;;16.60;98.00;;;;;;5030043;28;20407;-78
2021/07/05 00:20:30;;;;;;;6.65;2.70;;;16.60;98.00;;;;;;5046189;28;20022;-78
2021/07/05 00:22:57;;;;;;;8.63;3.17;;;16.60;98.00;;;;;;5031122;28;20464;-78
2021/07/05 00:25:23;;;;;;;6.18;2.53;;;16.60;97.90;;;;;;5046177;28;20136;-79
2021/07/05 00:27:50;;;;;;;5.07;2.70;;;16.60;98.00;;;;;;5046278;28;20028;-77
2021/07/05 00:30:16;;;;;;;4.68;2.63;;;16.60;97.90;;;;;;5030853;28;20025;-80
2021/07/05 00:32:44;;;;;;;6.57;2.95;;;16.70;97.90;;;;;;5046361;28;20025;-81
2021/07/05 00:35:11;;;;;;;6.03;2.97;;;16.60;97.80;;;;;;5046105;28;20022;-77
2021/07/05 00:37:36;;;;;;;5.03;2.60;;;16.60;97.70;;;;;;5046487;28;20495;-79
2021/07/05 00:40:05;;;;;;;6.97;3.15;;;16.60;97.70;;;;;;5046315;28;20044;-79
2021/07/05 00:42:30;;;;;;;7.88;2.40;;;16.60;97.70;;;;;;5046186;28;20574;-79
2021/07/05 00:44:56;;;;;;;6.03;2.70;;;16.50;97.70;;;;;;5046217;28;20036;-78
2021/07/05 00:47:22;;;;;;;10.38;3.13;;;16.50;97.70;;;;;;5046203;28;20036;-76
2021/07/05 00:49:48;;;;;;;9.57;2.80;;;16.50;97.70;;;;;;5029475;28;20037;-77
2021/07/05 00:52:14;;;;;;;8.85;2.83;;;16.50;97.80;;;;;;5046267;28;20029;-77
2021/07/05 00:54:40;;;;;;;6.97;3.42;;;16.40;97.80;;;;;;5046080;28;20545;-77
2021/07/05 00:57:19;;;;;;;7.60;2.97;;;16.40;97.80;;;;;;5029006;28;20034;-77
2021/07/05 00:59:53;;;;;;;5.93;2.85;;;16.40;97.70;;;;;;5030999;28;20033;-80
2021/07/05 01:02:21;;;;;;;8.00;2.72;;;16.40;97.70;;;;;;5045205;28;20443;-79
2021/07/05 01:04:47;;;;;;;5.40;2.60;;;16.40;97.70;;;;;;5029013;28;20177;-77
2021/07/05 01:07:14;;;;;;;7.88;2.67;;;16.40;97.70;;;;;;5045449;28;20507;-78
2021/07/05 01:09:40;;;;;;;3.75;2.03;;;16.30;97.70;;;;;;5029001;28;20037;-78
2021/07/05 01:12:07;;;;;;;4.53;2.22;;;16.30;97.70;;;;;;5029001;28;20039;-78
2021/07/05 01:14:33;;;;;;;7.95;2.38;;;16.30;97.70;;;;;;5029937;28;20035;-78
2021/07/05 01:16:59;;;;;;;6.10;2.80;;;16.30;97.70;;;;;;5029909;28;20346;-78
2021/07/05 01:19:26;;;;;;;6.43;2.38;;;16.30;97.80;;;;;;5045120;28;20389;-78
2021/07/05 01:21:52;;;;;;;5.78;2.30;;;16.30;97.70;;;;;;5045350;28;20117;-78
2021/07/05 01:24:18;;;;;;;6.43;2.25;;;16.30;97.60;;;;;;5028433;28;20117;-79
2021/07/05 01:26:44;;;;;;;4.88;2.42;;;16.30;97.70;;;;;;5028681;28;20457;-79
2021/07/05 01:29:10;;;;;;;5.40;2.88;;;16.30;97.70;;;;;;5045196;28;20500;-78
2021/07/05 01:31:36;;;;;;;5.15;2.10;;;16.30;97.60;;;;;;5028522;28;20033;-80
2021/07/05 01:34:03;;;;;;;5.85;2.45;;;16.30;97.80;;;;;;5028489;28;20033;-79
2021/07/05 01:36:29;;;;;;;5.28;2.28;;;16.30;97.60;;;;;;5044903;28;20487;-80
2021/07/05 01:38:55;;;;;;;6.20;2.35;;;16.30;97.50;;;;;;5029523;28;20119;-79
2021/07/05 01:41:21;;;;;;;9.65;2.60;;;16.30;97.50;;;;;;5028252;28;20060;-80
2021/07/05 01:43:48;;;;;;;4.22;2.30;;;16.30;97.50;;;;;;5028186;28;20469;-79
2021/07/05 01:46:14;;;;;;;5.88;2.20;;;16.30;97.50;;;;;;5029434;28;20471;-79
2021/07/05 01:48:41;;;;;;;6.13;2.03;;;16.30;97.50;;;;;;5028398;28;20030;-78
2021/07/05 01:51:07;;;;;;;4.25;2.15;;;16.30;97.50;;;;;;5044798;28;20068;-78
2021/07/05 01:53:33;;;;;;;12.18;2.90;;;16.30;97.40;;;;;;5029324;28;20032;-79
2021/07/05 01:55:58;;;;;;;7.32;2.38;;;16.30;97.50;;;;;;5027951;28;20038;-77
2021/07/05 01:58:24;;;;;;;8.40;2.15;;;16.30;97.40;;;;;;5027717;28;20129;-78
2021/07/05 02:00:51;;;;;;;8.20;2.47;;;16.20;97.40;;;;;;5044725;28;20114;-80
2021/07/05 02:03:17;;;;;;;6.78;2.10;;;16.30;97.40;;;;;;5027823;28;20487;-80
2021/07/05 02:05:47;;;;;;;11.25;2.97;;;16.20;97.40;;;;;;5044221;28;20120;-78
2021/07/05 02:08:13;;;;;;;;;;;16.20;97.30;;;;;;5028155;28;20022;-81
2021/07/05 02:10:42;;;;;;;13.05;3.28;;;16.20;97.20;;;;;;5044457;28;20046;-81
2021/07/05 02:13:18;;;;;;;15.95;2.45;;;16.20;97.10;;;;;;5044369;28;20165;-80
2021/07/05 02:15:44;;;;;;;12.48;3.05;;;16.10;97.20;;;;;;5028863;28;20448;-80
2021/07/05 02:18:11;;;;;;;12.85;2.05;;;16.00;97.30;;;;;;5028667;28;20049;-80
2021/07/05 02:20:37;;;;;;;12.63;2.80;;;16.10;97.40;;;;;;5044086;28;20025;-77
2021/07/05 02:23:05;;;;;;;9.52;2.20;;;16.10;97.40;;;;;;5028716;28;20508;-77
2021/07/05 02:25:33;;;;;;;9.32;1.80;;;16.10;97.30;;;;;;5043861;28;20048;-79
2021/07/05 02:28:06;;;;;;;14.85;2.45;;;16.00;97.20;;;;;;5027355;28;20033;-80
2021/07/05 02:30:32;;;;;;;12.75;2.83;;;16.00;97.10;;;;;;5027449;28;20025;-78
2021/07/05 02:32:59;;;;;;;11.85;2.47;;;15.90;97.10;;;;;;5027339;28;20033;-79
2021/07/05 02:35:28;;;;;;;17.25;2.90;;;15.90;97.30;;;;;;5027220;28;20487;-80
2021/07/05 02:37:58;;;;;;;13.55;2.67;;;15.80;97.30;;;;;;5028920;28;20029;-78
2021/07/05 02:40:26;;;;;;;15.18;2.83;;;15.80;97.30;;;;;;5027312;28;20050;-78
2021/07/05 02:42:52;;;;;;;10.63;2.25;;;15.80;97.30;;;;;;5043755;28;20428;-77
2021/07/05 02:45:24;;;;;;;10.98;2.45;;;15.80;97.30;;;;;;5027061;28;20037;-78
2021/07/05 02:47:52;;;;;;;11.75;2.88;;;15.90;97.30;;;;;;5028414;28;20018;-78
2021/07/05 02:50:19;;;;;;;10.65;2.15;;;15.90;97.30;;;;;;5043692;28;20033;-78
2021/07/05 02:52:45;;;;;;;11.18;2.05;;;15.90;97.20;;;;;;5028059;28;20064;-79
2021/07/05 02:55:12;;;;;;;7.60;2.33;;;15.90;97.20;;;;;;5028015;28;20503;-79
2021/07/05 02:57:38;;;;;;;12.57;2.92;;;15.90;97.20;;;;;;5026749;28;20063;-81
2021/07/05 03:00:10;;;;;;;8.70;2.35;;;15.90;97.20;;;;;;5043317;28;20084;-80
2021/07/05 03:02:36;;;;;;;15.10;3.03;;;15.90;97.20;;;;;;5043327;28;20379;-80
2021/07/05 03:05:08;;;;;;;6.55;2.40;;;15.90;97.10;;;;;;5027957;28;20092;-80
2021/07/05 03:07:34;;;;;;;6.75;2.50;;;15.90;97.20;;;;;;5027928;28;20036;-80
2021/07/05 03:10:00;;;;;;;11.80;2.67;;;15.90;97.20;;;;;;5027783;28;20452;-77
2021/07/05 03:12:26;;;;;;;13.50;2.58;;;15.80;97.30;;;;;;5043223;28;20052;-78
2021/07/05 03:14:54;;;;;;;10.60;2.65;;;15.80;97.30;;;;;;5043168;28;20067;-78
2021/07/05 03:17:19;;;;;;;7.60;2.65;;;15.80;97.30;;;;;;5026440;28;20559;-81
2021/07/05 03:19:45;;;;;;;11.05;2.60;;;15.80;97.30;;;;;;5026462;28;20057;-79
2021/07/05 03:22:11;;;;;;;19.15;2.97;;;15.70;97.30;;;;;;5026529;28;20502;-77
2021/07/05 03:24:37;;;;;;;7.22;2.03;;;15.70;97.30;;;;;;5026470;28;20030;-79
2021/07/05 03:27:03;;;;;;;16.27;2.53;;;15.60;97.40;;;;;;5026059;28;20109;-77
2021/07/05 03:29:29;;;;;;;11.48;2.90;;;15.60;97.40;;;;;;5026628;28;20036;-77
2021/07/05 03:31:54;;;;;;;8.88;2.17;;;15.60;97.40;;;;;;5027658;28;20051;-79
2021/07/05 03:34:20;;;;;;;14.95;2.80;;;15.60;97.40;;;;;;5027665;28;20071;-80
2021/07/05 03:36:46;;;;;;;16.73;2.40;;;15.50;97.40;;;;;;5027605;28;20053;-79
2021/07/05 03:39:12;;;;;;;13.27;2.00;;;15.60;97.40;;;;;;5026466;28;20030;-78
2021/07/05 03:41:37;;;;;;;18.17;2.85;;;15.60;97.40;;;;;;5026346;28;20128;-79
2021/07/05 03:44:03;;;;;;;14.55;2.63;;;15.60;97.40;;;;;;5026248;28;20025;-80
2021/07/05 03:46:29;;;;;;;8.45;2.92;;;15.60;97.30;;;;;;5026208;28;20440;-78
2021/07/05 03:48:54;;;;;;;12.50;2.92;;;15.60;97.30;;;;;;5026309;28;20057;-77
2021/07/05 03:51:20;;;;;;;8.32;2.13;;;15.60;97.30;;;;;;5026261;28;20036;-78
2021/07/05 03:53:46;;;;;;;10.70;2.70;;;15.60;97.20;;;;;;5026591;28;20033;-77
2021/07/05 03:56:11;;;;;;;12.70;3.95;;;15.50;97.20;;;;;;5027456;28;20073;-78
2021/07/05 03:58:37;;;;;;;11.88;2.53;;;15.50;97.20;;;;;;5026332;28;20057;-77
2021/07/05 04:01:03;;;;;;;12.23;3.13;;;15.50;97.10;;;;;;5026201;28;20036;-80
2021/07/05 04:03:29;;;;;;;16.50;2.78;;;15.40;97.00;;;;;;5027497;28;20033;-80
2021/07/05 04:05:55;;;;;;;14.85;3.05;;;15.30;97.00;;;;;;5026218;28;20037;-78
2021/07/05 04:08:25;;;;;;;18.52;4.15;;;15.20;97.00;;;;;;5042754;28;20516;-78
2021/07/05 04:10:51;;;;;;;11.77;2.78;;;15.00;97.00;;;;;;5026019;28;20021;-80
2021/07/05 04:13:17;;;;;;;16.17;3.53;;;14.90;97.20;;;;;;5026085;28;20502;-78
2021/07/05 04:15:42;;;;;;;12.88;3.17;;;14.80;97.20;;;;;;5009533;28;20025;-80
2021/07/05 04:18:08;;;;;;;10.85;2.50;;;14.80;97.30;;;;;;5025839;28;20519;-78
2021/07/05 04:20:35;;;;;;;11.77;2.33;;;14.70;97.30;;;;;;5025952;28;20033;-79
2021/07/05 04:23:01;;;;;;;11.40;2.95;;;14.60;97.40;;;;;;5042547;28;20026;-79
2021/07/05 04:25:27;;;;;;;10.02;3.00;;;14.60;97.40;;;;;;5026026;28;20272;-77
2021/07/05 04:27:54;;;;;;;9.23;2.47;;;14.50;97.50;;;;;;5025926;28;20414;-81
2021/07/05 04:30:20;;;;;;;17.05;3.45;;;14.40;97.50;;;;;;5025973;28;20480;-79
2021/07/05 04:32:47;;;;;;;18.40;4.05;;;14.40;97.50;;;;;;5042479;28;20397;-79
2021/07/05 04:35:18;;;;;;;12.90;3.30;;;14.30;97.60;;;;;;5025888;28;20436;-80
2021/07/05 04:37:45;;;;;;;14.55;3.25;;;14.30;97.60;;;;;;5025956;28;20021;-80
2021/07/05 04:40:14;;;;;;;11.43;2.63;;;14.30;97.60;;;;;;5045948;28;20075;-79
2021/07/05 04:42:41;;;;;;;13.98;3.60;;;14.20;97.60;;;;;;5045935;28;20563;-78
2021/07/05 04:45:08;;;;;;;17.52;3.30;;;14.20;97.60;;;;;;5045393;28;20033;-78
2021/07/05 04:47:35;;;;;;;13.82;4.63;;;14.10;97.70;;;;;;5029378;28;20048;-77
2021/07/05 04:50:00;;;;;;;12.70;2.75;;;14.10;97.70;;;;;;5029340;28;20391;-78
2021/07/05 04:52:26;;;;;;;11.02;3.08;;;14.10;97.70;;;;;;5029169;28;20040;-80
2021/07/05 04:54:53;;;;;;;17.77;3.80;;;14.10;97.70;;;;;;5029153;28;20387;-78
2021/07/05 04:57:19;;;;;;;11.82;3.33;;;14.00;97.70;;;;;;5029212;28;20025;-77
2021/07/05 04:59:45;;;;;;;8.85;2.88;;;14.00;97.70;;;;;;5028973;28;20500;-77
2021/07/05 05:02:11;;;;;;;8.52;2.65;;;14.00;97.70;;;;;;5029194;28;20116;-80
2021/07/05 05:04:37;;;;;;;15.52;3.05;;;14.00;97.70;;;;;;5045578;28;20499;-77
2021/07/05 05:07:03;;;;;;;15.00;3.30;;;14.00;97.70;;;;;;5028912;28;20033;-79
2021/07/05 05:09:28;;;;;;;16.45;4.22;;;13.90;97.70;;;;;;5045784;28;20033;-80
2021/07/05 05:11:54;;;;;;;19.05;3.30;;;13.90;97.70;;;;;;5028834;28;20040;-80
2021/07/05 05:14:20;;;;;;;16.90;4.00;;;14.00;97.70;;;;;;5028934;28;20037;-79
2021/07/05 05:16:47;;;;;;;14.45;3.55;;;13.90;97.60;;;;;;5030009;28;20064;-79
2021/07/05 05:19:12;;;;;;;23.77;3.80;;;13.90;97.60;;;;;;5045138;28;20051;-80
2021/07/05 05:21:38;;;;;;;10.45;3.38;;;13.90;97.70;;;;;;5045243;28;20033;-78
2021/07/05 05:24:04;;;;;;;14.52;3.33;;;14.00;97.70;;;;;;5045122;28;20391;-77
2021/07/05 05:26:30;;;;;;;10.07;3.53;;;14.00;97.60;;;;;;5045393;28;20028;-79
2021/07/05 05:28:56;;;;;;;18.35;3.67;;;14.00;97.60;;;;;;5029095;28;20033;-80
2021/07/05 05:31:23;;;;;;;9.32;3.13;;;14.00;97.50;;;;;;5028756;28;20037;-77
2021/07/05 05:33:48;;;;;;;15.05;3.45;;;14.00;97.50;;;;;;5029788;28;20388;-79
2021/07/05 05:36:14;;;;;;;20.08;3.55;;;14.00;97.40;;;;;;5044851;28;20037;-79
2021/07/05 05:38:45;;;;;;;17.63;3.22;;;14.00;97.40;;;;;;5029526;28;20051;-79
2021/07/05 05:41:11;;;;;;;13.00;4.18;;;14.00;97.40;;;;;;5029704;28;20032;-79
2021/07/05 05:43:37;;;;;;;18.85;3.28;;;14.10;97.40;;;;;;5028515;28;20108;-80
2021/07/05 05:46:03;;;;;;;13.38;2.97;;;14.10;97.30;;;;;;5044854;28;20117;-77
2021/07/05 05:48:29;;;;;;;13.25;2.88;;;14.10;97.30;;;;;;5027904;28;20476;-80
2021/07/05 05:50:56;;;;;;;10.82;2.90;;;14.40;97.60;;;;;;5029310;28;20075;-80
2021/07/05 05:53:22;;;;;;;13.30;3.35;;;15.10;97.20;;;;;;5028059;28;20117;-79
2021/07/05 05:55:47;;;;;;;13.43;3.03;;;15.90;95.80;;;;;;5027920;28;20038;-78
2021/07/05 05:58:14;;;;;;;13.95;3.55;;;16.10;94.70;;;;;;5028226;28;20032;-80
2021/07/05 06:00:41;;;;;;;11.98;3.70;;;16.10;94.60;;;;;;5029292;28;20073;-78
2021/07/05 06:03:07;;;;;;;11.27;2.70;;;15.90;94.80;;;;;;5029043;28;20029;-79
2021/07/05 06:05:32;;;;;;;11.32;2.70;;;16.00;95.50;;;;;;5044477;28;20075;-78
2021/07/05 06:07:58;;;;;;;10.93;2.58;;;16.90;95.40;;;;;;5044221;28;20075;-80
2021/07/05 06:10:25;;;;;;;11.63;2.35;;;18.30;94.10;;;;;;5027706;28;20316;-78
2021/07/05 06:12:53;;;;;;;19.15;3.88;;;19.60;92.00;;;;;;5029154;28;20041;-78
2021/07/05 06:15:19;;;;;;;11.43;2.75;;;20.60;89.70;;;;;;5043987;28;20441;-78
2021/07/05 06:17:47;;;;;;;12.20;2.53;;;21.60;86.00;;;;;;5027438;28;20099;-78
2021/07/05 06:20:13;;;;;;;9.93;1.95;;;22.20;81.80;;;;;;5027427;28;20030;-79
2021/07/05 06:22:42;;;;;;;14.43;2.40;;;22.70;79.40;;;;;;5028802;28;20048;-80
2021/07/05 06:25:08;;;;;;;11.02;2.00;;;23.30;76.90;;;;;;5027619;28;20312;-81
2021/07/05 06:27:34;;;;;;;16.02;2.28;;;23.70;74.60;;;;;;5028503;28;20100;-78
2021/07/05 06:30:00;;;;;;;12.40;2.65;;;24.10;72.30;;;;;;5043901;28;20121;-80
2021/07/05 06:32:25;;;;;;;11.23;2.08;;;24.30;70.20;;;;;;5028569;28;20435;-81
2021/07/05 06:34:51;;;;;;;14.23;2.55;;;24.50;69.30;;;;;;5027258;28;20427;-79
2021/07/05 06:37:17;;;;;;;10.60;1.58;;;24.80;67.70;;;;;;5027166;28;20116;-79
2021/07/05 06:39:43;;;;;;;11.05;2.40;;;25.00;66.90;;;;;;5028007;28;20034;-78
2021/07/05 06:42:08;;;;;;;12.70;2.90;;;25.40;66.00;;;;;;5043491;28;20056;-79
2021/07/05 06:44:34;;;;;;;15.48;2.97;;;25.90;65.40;;;;;;5043222;28;20480;-78
2021/07/05 06:47:00;;;;;;;10.48;2.17;;;26.30;64.50;;;;;;5027017;28;20091;-80
2021/07/05 06:49:26;;;;;;;10.90;2.40;;;26.80;63.30;;;;;;5028063;28;20083;-78
2021/07/05 06:51:53;;;;;;;11.98;2.28;;;27.10;61.70;;;;;;5043291;28;20052;-80
2021/07/05 06:54:19;;;;;;;12.45;2.13;;;27.30;60.40;;;;;;5027872;28;20033;-78
2021/07/05 06:56:44;;;;;;;10.82;2.13;;;27.30;59.40;;;;;;5027818;28;20087;-79
2021/07/05 06:59:10;;;;;;;8.35;1.95;;;27.50;59.00;;;;;;5026536;28;20035;-78
2021/07/05 07:01:36;;;;;;;10.52;2.55;;;27.70;59.00;;;;;;5025879;28;20030;-78
2021/07/05 07:04:02;;;;;;;6.55;1.38;;;28.20;58.50;;;;;;5042932;28;20139;-80
2021/07/05 07:06:28;;;;;;;7.95;1.80;;;28.60;57.10;;;;;;5027416;28;20026;-78
2021/07/05 07:08:54;;;;;;;12.85;2.38;;;28.70;56.00;;;;;;5027819;28;20056;-79
2021/07/05 07:11:20;;;;;;;9.77;2.15;;;28.80;55.70;;;;;;5043039;28;20029;-79
2021/07/05 07:13:46;;;;;;;8.32;1.63;;;29.00;55.10;;;;;;5026901;28;20030;-78
2021/07/05 07:16:14;;;;;;;6.75;1.90;;;29.10;54.40;;;;;;5027584;28;20032;-80
2021/07/05 07:18:59;;;;;;;10.60;1.63;;;29.10;54.00;;;;;;5027239;28;20053;-80
2021/07/05 07:21:26;;;;;;;11.40;1.70;;;29.00;53.70;;;;;;5042821;28;20428;-80
2021/07/05 07:23:53;;;;;;;9.52;2.10;;;29.00;53.90;;;;;;5028413;28;20030;-82
2021/07/05 07:26:20;;;;;;;10.85;2.10;;;29.40;54.40;;;;;;5027580;28;20536;-80
2021/07/05 07:28:51;;;;;;;10.77;2.38;;;30.00;54.20;;;;;;5042819;28;20075;-79
2021/07/05 07:31:17;;;;;;;6.32;1.58;;;30.60;53.60;;;;;;5027031;28;20021;-80
2021/07/05 07:33:43;;;;;;;9.65;1.70;;;31.20;52.70;;;;;;5026285;28;20029;-81
2021/07/05 07:36:09;;;;;;;14.57;2.33;;;30.60;52.10;;;;;;5026409;28;20045;-81
2021/07/05 07:38:40;;;;;;;8.70;2.25;;;30.20;51.70;;;;;;5026184;28;20392;-80
2021/07/05 07:41:05;;;;;;;11.73;2.10;;;29.50;51.10;;;;;;5027375;28;20053;-79
2021/07/05 07:43:31;;;;;;;11.80;1.98;;;29.00;51.40;;;;;;5028135;28;20057;-80
2021/07/05 07:45:57;;;;;;;3.58;1.30;;;29.10;52.00;;;;;;5026376;28;20026;-80
2021/07/05 07:48:23;;;;;;;10.10;1.50;;;29.70;52.10;;;;;;5026011;28;20029;-79
2021/07/05 07:50:48;;;;;;;10.13;1.67;;;30.40;51.30;;;;;;5026962;28;20496;-80
2021/07/05 07:53:14;;;;;;;8.73;1.70;;;30.90;50.50;;;;;;5026591;28;20034;-79
2021/07/05 07:55:40;;;;;;;7.38;2.13;;;31.60;51.50;;;;;;5026629;28;20033;-79
2021/07/05 07:58:05;;;;;;;7.95;1.90;;;32.40;50.30;;;;;;5042383;28;20609;-81
2021/07/05 08:00:32;;;;;;;10.55;1.75;;;33.00;49.30;;;;;;5025697;28;20033;-78
2021/07/05 08:02:58;;;;;;;7.72;1.75;;;33.60;48.80;;;;;;5026092;28;20038;-80
2021/07/05 08:05:24;;;;;;;9.85;2.45;;;34.00;48.20;;;;;;5026963;28;20057;-79
2021/07/05 08:07:50;;;;;;;8.85;2.03;;;34.20;47.30;;;;;;5025640;28;20029;-80
2021/07/05 08:10:16;;;;;;;14.10;3.75;;;34.20;46.20;;;;;;5027150;28;20047;-83
2021/07/05 08:12:44;;;;;;;8.63;1.67;;;33.60;45.80;;;;;;5043913;28;20029;-80
2021/07/05 08:15:11;;;;;;;11.02;2.85;;;33.40;45.80;;;;;;5029503;28;20036;-82
2021/07/05 08:17:37;;;;;;;7.32;1.50;;;33.30;45.80;;;;;;5030362;28;20115;-82
2021/07/05 08:20:06;;;;;;;8.27;2.08;;;33.50;45.60;;;;;;5029137;28;20053;-81
2021/07/05 08:22:34;;;;;;;5.45;1.75;;;33.50;45.20;;;;;;5029302;28;20474;-78
2021/07/05 08:24:59;;;;;;;10.35;1.88;;;33.50;45.50;;;;;;5030268;28;20515;-81
2021/07/05 08:27:25;;;;;;;9.52;2.25;;;32.60;44.10;;;;;;5030285;28;20053;-81
2021/07/05 08:29:51;;;;;;;8.85;2.42;;;31.40;45.20;;;;;;5029074;28;20384;-80
2021/07/05 08:32:17;;;;;;;10.95;2.83;;;30.80;45.90;;;;;;5029152;28;20034;-81
2021/07/05 08:34:42;;;;;;;9.80;2.92;;;30.60;46.30;;;;;;5028922;28;20568;-81
2021/07/05 08:37:08;;;;;;;27.30;14.48;;;29.90;46.40;;;;;;5045721;28;20128;-79
2021/07/05 08:39:34;;;;;;;6.68;2.03;;;28.90;46.80;;;;;;5029448;28;20120;-79
2021/07/05 08:42:00;;;;;;;10.85;2.85;;;28.40;47.70;;;;;;5029271;28;20026;-79
2021/07/05 08:44:26;;;;;;;10.00;2.00;;;28.80;48.90;;;;;;5030410;28;20643;-81
2021/07/05 08:46:54;;;;;;;7.35;1.95;;;29.80;48.20;;;;;;5045454;28;20091;-80
2021/07/05 08:49:20;;;;;;;7.47;2.00;;;29.70;46.80;;;;;;5030289;28;20029;-80
2021/07/05 08:51:46;;;;;;;9.55;1.67;;;29.00;47.00;;;;;;5030104;28;20029;-80
2021/07/05 08:54:12;;;;;;;11.95;1.70;;;28.90;47.70;;;;;;5045031;28;20033;-79
2021/07/05 08:56:37;;;;;;;6.85;2.10;;;29.30;48.00;;;;;;5045090;28;20452;-79
2021/07/05 08:59:03;;;;;;;6.50;1.88;;;30.30;48.10;;;;;;5031158;28;20029;-79
2021/07/05 09:01:29;;;;;;;8.35;1.90;;;31.00;46.30;;;;;;5030772;28;20379;-80
2021/07/05 09:03:54;;;;;;;5.90;1.58;;;30.30;45.20;;;;;;5031931;28;20363;-81
2021/07/05 09:06:28;;;;;;;10.00;1.55;;;29.40;46.10;;;;;;5030746;28;20083;-79
2021/07/05 09:08:59;;;;;;;8.23;1.30;;;28.90;46.80;;;;;;5032049;28;20142;-80
2021/07/05 09:11:48;;;;;;;6.47;1.83;;;28.40;46.90;;;;;;5031894;28;20017;-78
2021/07/05 09:14:23;;;;;;;8.07;1.90;;;27.80;47.70;;;;;;5031844;28;20449;-78
2021/07/05 09:16:50;;;;;;;10.95;1.92;;;27.50;48.30;;;;;;5031010;28;20018;-81
2021/07/05 09:19:20;;;;;;;8.15;2.20;;;27.30;48.60;;;;;;5031397;28;20441;-81
2021/07/05 09:21:52;;;;;;;11.07;4.40;;;27.30;48.70;;;;;;5046403;28;20025;-79
2021/07/05 09:24:37;;;;;;;5.65;1.52;;;28.00;49.00;;;;;;5045704;28;20079;-76
2021/07/05 09:27:17;;;;;;;9.40;1.98;;;29.50;48.70;;;;;;5031196;28;20029;-78
2021/07/05 09:29:43;;;;;;;4.70;1.40;;;30.80;47.80;;;;;;5030070;28;20835;-78
2021/07/05 09:32:25;;;;;;;4.50;1.38;;;31.80;46.30;;;;;;5030082;28;20033;-77
2021/07/05 09:34:51;;;;;;;7.00;1.42;;;31.70;44.70;;;;;;5029836;28;20559;-79
2021/07/05 09:37:23;;;;;;;12.43;2.05;;;31.20;44.50;;;;;;5031301;28;20104;-80
2021/07/05 09:40:01;;;;;;;9.57;1.77;;;30.80;44.80;;;;;;5031201;28;20553;-77
2021/07/05 09:42:28;;;;;;;5.40;1.88;;;31.10;45.40;;;;;;5030850;28;20030;-78
2021/07/05 09:44:55;;;;;;;10.23;1.88;;;32.00;45.70;;;;;;5031050;28;20433;-78
2021/07/05 09:47:25;;;;;;;3.33;1.20;;;33.10;45.40;;;;;;5029874;28;20030;-78
2021/07/05 09:49:51;;;;;;;;;;;34.20;44.90;;;;;;5046584;28;20083;-78
2021/07/05 09:52:26;;;;;;;4.40;1.10;;;35.00;44.90;;;;;;5030558;28;19930;-77
2021/07/05 09:55:05;;;;;;;6.45;3.05;;;35.20;42.90;;;;;;5030704;28;20110;-80
2021/07/05 09:57:52;;;;;;;3.33;1.48;;;34.80;42.20;;;;;;5030280;28;20025;-79
2021/07/05 10:00:28;;;;;;;11.38;4.72;;;34.70;42.00;;;;;;5025308;28;20094;-78
2021/07/05 10:03:02;;;;;;;5.22;1.67;;;34.40;41.70;;;;;;5029885;28;20041;-78
2021/07/05 10:05:32;;;;;;;5.50;1.42;;;34.60;42.20;;;;;;5045166;28;20475;-78
2021/07/05 10:07:59;;;;;;;6.32;2.00;;;35.10;41.70;;;;;;5030158;28;20397;-78
2021/07/05 10:10:25;;;;;;;8.23;1.90;;;35.30;41.20;;;;;;5046222;28;20085;-79
2021/07/05 10:13:06;;;;;;;3.67;1.25;;;35.10;40.80;;;;;;5030434;28;20072;-79
2021/07/05 10:15:33;;;;;;;5.22;1.45;;;34.20;40.00;;;;;;5030191;28;20116;-82
2021/07/05 10:17:59;;;;;;;5.35;1.75;;;33.30;40.20;;;;;;5029718;28;20421;-80
2021/07/05 10:20:38;;;;;;;3.63;1.42;;;32.60;40.80;;;;;;5030043;28;20101;-72
2021/07/05 10:23:11;;;;;;;4.05;1.50;;;32.50;41.60;;;;;;5027645;28;20045;-77
2021/07/05 10:25:40;;;;;;;2.53;1.15;;;33.40;42.10;;;;;;5030046;28;20075;-80
2021/07/05 10:28:06;;;;;;;;;;;34.70;41.60;;;;;;5028896;28;20031;-79
2021/07/05 10:30:33;;;;;;;4.22;1.20;;;35.50;42.40;;;;;;5029185;28;19910;-79
2021/07/05 10:33:00;;;;;;;5.00;1.60;;;35.30;40.60;;;;;;5030100;28;20111;-79
2021/07/05 10:35:37;;;;;;;3.88;1.23;;;34.30;40.40;;;;;;5028352;28;20029;-79
2021/07/05 10:38:12;;;;;;;6.07;1.70;;;33.30;40.60;;;;;;5044597;28;20048;-77
2021/07/05 10:40:49;;;;;;;4.68;1.50;;;32.30;40.60;;;;;;5029677;28;20025;-80
2021/07/05 10:43:24;;;;;;;4.63;1.40;;;31.50;41.10;;;;;;5029687;28;20361;-77
2021/07/05 10:45:50;;;;;;;2.90;1.13;;;31.10;41.60;;;;;;5030212;28;20021;-78
2021/07/05 10:48:37;;;;;;;4.35;1.25;;;30.80;41.80;;;;;;5030560;28;20020;-79
2021/07/05 10:51:04;;;;;;;3.30;1.20;;;31.20;42.10;;;;;;5045666;28;20443;-79
2021/07/05 10:53:32;;;;;;;5.95;1.38;;;32.20;42.10;;;;;;5028739;28;20030;-78
2021/07/05 10:56:03;;;;;;;4.97;1.38;;;32.90;41.60;;;;;;5029304;28;20022;-79
2021/07/05 10:58:31;;;;;;;5.75;1.27;;;33.30;41.70;;;;;;5045359;28;20029;-77
2021/07/05 11:00:59;;;;;;;4.95;1.40;;;34.50;41.90;;;;;;5044097;28;20029;-79
2021/07/05 11:03:37;;;;;;;2.90;1.10;;;35.70;40.60;;;;;;5044910;28;20029;-78
2021/07/05 11:06:08;;;;;;;6.72;1.42;;;36.50;39.20;;;;;;5039516;28;20286;-78
2021/07/05 11:08:44;;;;;;;3.70;1.52;;;36.10;38.60;;;;;;5029885;28;20099;-81
2021/07/05 11:11:19;;;;;;;4.90;1.50;;;34.90;38.00;;;;;;5029444;28;20297;-80
2021/07/05 11:13:46;;;;;;;6.50;1.67;;;34.40;38.50;;;;;;5044793;28;20033;-79
2021/07/05 11:16:12;;;;;;;4.05;1.30;;;34.10;39.00;;;;;;5044932;28;20029;-80
2021/07/05 11:18:45;;;;;;;6.07;1.48;;;34.30;39.30;;;;;;5029449;28;20073;-79
2021/07/05 11:21:23;;;;;;;4.32;1.33;;;34.50;38.90;;;;;;5029230;28;20483;-81
2021/07/05 11:23:55;;;;;;;5.03;1.40;;;34.50;38.90;;;;;;5043046;28;20353;-79
2021/07/05 11:26:23;;;;;;;4.22;1.30;;;33.80;38.40;;;;;;5026699;28;20116;-79
2021/07/05 11:29:14;;;;;;;2.17;0.90;;;33.70;38.70;;;;;;5044292;28;20030;-81
2021/07/05 11:31:54;;;;;;;4.85;2.00;;;33.80;38.60;;;;;;5044455;28;20028;-78
2021/07/05 11:34:26;;;;;;;4.93;1.23;;;34.00;38.60;;;;;;5028267;28;20028;-80
2021/07/05 11:37:15;;;;;;;3.30;1.20;;;34.00;38.70;;;;;;5044954;28;20021;-80
2021/07/05 11:39:50;;;;;;;2.30;1.27;;;34.00;38.70;;;;;;5029255;28;20503;-79
2021/07/05 11:42:43;;;;;;;4.97;2.38;;;34.40;38.40;;;;;;5028574;28;20097;-80
2021/07/05 11:45:09;;;;;;;3.20;1.20;;;34.70;38.50;;;;;;5028398;28;20025;-80
2021/07/05 11:47:37;;;;;;;3.88;1.13;;;35.20;38.40;;;;;;5031647;28;20391;-82
2021/07/05 11:50:20;;;;;;;8.13;1.40;;;35.30;38.10;;;;;;5014531;28;20114;-80
2021/07/05 11:52:58;;;;;;;5.15;1.30;;;35.40;37.90;;;;;;5022979;28;20064;-79
2021/07/05 11:55:30;;;;;;;4.18;1.35;;;35.40;38.00;;;;;;5031304;28;20423;-75
2021/07/05 11:58:01;;;;;;;3.72;1.33;;;35.30;38.20;;;;;;5035022;28;20104;-79
2021/07/05 12:00:30;;;;;;;6.32;2.92;;;35.30;38.60;;;;;;5048763;28;20032;-79
2021/07/05 12:03:09;;;;;;;2.17;1.23;;;35.40;38.50;;;;;;5048485;28;20056;-78
2021/07/05 12:05:38;;;;;;;5.68;1.00;;;35.70;38.20;;;;;;5033187;28;20673;-79
2021/07/05 12:08:14;;;;;;;8.67;1.37;;;35.70;37.90;;;;;;5033391;28;20026;-80
2021/07/05 12:10:43;;;;;;;3.08;1.27;;;35.40;38.10;;;;;;5033074;28;20534;-77
2021/07/05 12:13:13;;;;;;;7.90;1.63;;;35.00;38.70;;;;;;5033688;28;20058;-79
2021/07/05 12:15:41;;;;;;;3.80;1.00;;;34.80;38.80;;;;;;5047816;28;20040;-77
2021/07/05 12:18:07;;;;;;;4.88;1.05;;;34.50;38.60;;;;;;5050445;28;20128;-78
2021/07/05 12:20:32;;;;;;;2.25;0.82;;;34.10;38.80;;;;;;5039279;28;20479;-77
2021/07/05 12:23:09;;;;;;;1.30;0.77;;;33.70;38.90;;;;;;5033920;28;20021;-78
2021/07/05 12:25:36;;;;;;;1.98;0.70;;;33.50;38.90;;;;;;5033106;28;20028;-77
2021/07/05 12:28:28;;;;;;;1.88;0.75;;;33.30;39.20;;;;;;5032430;28;20100;-77
2021/07/05 12:30:54;;;;;;;2.70;1.00;;;32.90;39.30;;;;;;5061620;28;20037;-79
2021/07/05 12:33:19;;;;;;;4.53;1.10;;;32.40;39.80;;;;;;5031009;28;20441;-79
2021/07/05 12:35:45;;;;;;;2.28;0.80;;;32.50;40.10;;;;;;5030462;28;20097;-78
2021/07/05 12:38:13;;;;;;;3.03;1.40;;;32.90;40.30;;;;;;5031764;28;20026;-79
2021/07/05 12:40:41;;;;;;;4.63;1.23;;;33.20;40.10;;;;;;5030105;28;20021;-77
2021/07/05 12:43:12;;;;;;;4.97;1.92;;;33.50;39.90;;;;;;5031419;28;20072;-79
2021/07/05 12:45:55;;;;;;;3.50;1.25;;;33.90;39.90;;;;;;5028820;28;20587;-80
2021/07/05 12:48:23;;;;;;;6.13;2.35;;;33.80;39.50;;;;;;5029154;28;20025;-78